createdAt,value
2022-08-17T00:00:44.113Z,15.70
2022-08-17T00:03:11.819Z,15.60
2022-08-17T00:05:48.316Z,15.60
2022-08-17T00:08:19.811Z,15.60
2022-08-17T00:10:48.508Z,15.60
2022-08-17T00:13:38.299Z,15.60
2022-08-17T00:16:13.421Z,15.60
2022-08-17T00:19:01.221Z,15.60
2022-08-17T00:21:56.369Z,15.70
2022-08-17T00:24:17.940Z,15.80
2022-08-17T00:26:46.082Z,15.80
2022-08-17T00:29:19.593Z,15.70
2022-08-17T00:31:48.744Z,15.60
2022-08-17T00:34:16.786Z,15.60
2022-08-17T00:36:44.463Z,15.50
2022-08-17T00:39:12.187Z,15.40
2022-08-17T00:41:42.146Z,15.40
2022-08-17T00:44:12.403Z,15.50
2022-08-17T00:46:42.473Z,15.50
2022-08-17T00:49:13.728Z,15.60
2022-08-17T00:51:46.589Z,15.40
2022-08-17T00:54:26.112Z,15.20
2022-08-17T00:57:36.751Z,15.00
2022-08-17T01:00:11.561Z,14.90
2022-08-17T01:02:43.314Z,14.80
2022-08-17T01:05:16.636Z,14.70
2022-08-17T01:07:47.879Z,14.70
2022-08-17T01:10:59.224Z,14.80
2022-08-17T01:13:07.430Z,14.80
2022-08-17T01:15:48.018Z,14.70
2022-08-17T01:18:16.680Z,14.60
2022-08-17T01:20:53.745Z,14.50
2022-08-17T01:23:24.174Z,14.60
2022-08-17T01:25:57.690Z,14.60
2022-08-17T01:28:33.473Z,14.70
2022-08-17T01:31:18.913Z,14.80
2022-08-17T01:33:46.571Z,14.70
2022-08-17T01:36:14.444Z,14.60
2022-08-17T01:38:42.267Z,14.50
2022-08-17T01:41:14.583Z,14.50
2022-08-17T01:43:57.322Z,14.40
2022-08-17T01:46:28.527Z,14.50
2022-08-17T01:48:56.385Z,14.60
2022-08-17T01:51:27.720Z,14.80
2022-08-17T01:53:58.282Z,14.70
2022-08-17T01:56:28.680Z,14.50
2022-08-17T01:58:56.881Z,14.30
2022-08-17T02:01:28.603Z,14.30
2022-08-17T02:04:01.270Z,14.30
2022-08-17T02:06:53.639Z,14.40
2022-08-17T02:09:23.311Z,14.40
2022-08-17T02:11:57.504Z,14.50
2022-08-17T02:14:25.449Z,14.50
2022-08-17T02:16:54.330Z,14.50
2022-08-17T02:19:22.530Z,14.50
2022-08-17T02:21:53.040Z,14.50
2022-08-17T02:25:00.784Z,14.50
2022-08-17T02:27:15.717Z,14.50
2022-08-17T02:29:43.422Z,14.50
2022-08-17T02:32:27.608Z,14.40
2022-08-17T02:34:57.557Z,14.30
2022-08-17T02:37:27.012Z,14.10
2022-08-17T02:39:57.229Z,14.20
2022-08-17T02:42:36.514Z,14.20
2022-08-17T02:45:12.969Z,14.20
2022-08-17T02:47:41.410Z,14.20
2022-08-17T02:50:12.014Z,14.10
2022-08-17T02:52:43.641Z,14.00
2022-08-17T02:55:15.989Z,14.00
2022-08-17T02:57:44.437Z,14.00
2022-08-17T03:00:16.934Z,14.10
2022-08-17T03:02:45.340Z,14.10
2022-08-17T03:05:14.501Z,14.10
2022-08-17T03:07:43.173Z,14.20
2022-08-17T03:10:11.795Z,14.20
2022-08-17T03:12:42.278Z,14.40
2022-08-17T03:15:16.340Z,14.30
2022-08-17T03:17:44.805Z,14.30
2022-08-17T03:20:13.883Z,14.20
2022-08-17T03:22:48.005Z,14.10
2022-08-17T03:25:27.496Z,14.10
2022-08-17T03:27:57.234Z,14.00
2022-08-17T03:30:26.785Z,13.90
2022-08-17T03:32:57.303Z,13.90
2022-08-17T03:35:28.501Z,14.00
2022-08-17T03:38:00.100Z,14.00
2022-08-17T03:40:34.594Z,14.00
2022-08-17T03:43:21.885Z,13.80
2022-08-17T03:46:10.805Z,13.60
2022-08-17T03:49:15.769Z,13.60
2022-08-17T03:52:01.920Z,13.60
2022-08-17T03:54:48.028Z,13.60
2022-08-17T03:57:16.734Z,13.60
2022-08-17T03:59:45.055Z,13.60
2022-08-17T04:02:20.034Z,13.60
2022-08-17T04:04:51.021Z,13.40
2022-08-17T04:07:19.553Z,13.30
2022-08-17T04:09:47.213Z,13.20
2022-08-17T04:12:20.166Z,13.30
2022-08-17T04:14:52.715Z,13.40
2022-08-17T04:17:27.766Z,13.50
2022-08-17T04:19:55.864Z,13.50
2022-08-17T04:22:30.930Z,13.50
2022-08-17T04:25:09.097Z,13.50
2022-08-17T04:27:36.827Z,13.60
2022-08-17T04:30:07.394Z,13.60
2022-08-17T04:33:05.866Z,13.60
2022-08-17T04:35:45.780Z,13.60
2022-08-17T04:38:16.828Z,13.70
2022-08-17T04:41:03.198Z,13.80
2022-08-17T04:43:32.950Z,13.90
2022-08-17T04:46:07.206Z,14.00
2022-08-17T04:48:46.281Z,14.10
2022-08-17T04:51:22.151Z,14.10
2022-08-17T04:53:54.419Z,14.00
2022-08-17T04:56:25.971Z,14.00
2022-08-17T04:58:56.741Z,14.00
2022-08-17T05:01:26.494Z,14.00
2022-08-17T05:03:56.416Z,14.10
2022-08-17T05:06:24.288Z,14.20
2022-08-17T05:08:52.591Z,14.30
2022-08-17T05:11:21.074Z,14.50
2022-08-17T05:13:50.381Z,14.60
2022-08-17T05:16:19.390Z,14.70
2022-08-17T05:18:48.247Z,14.90
2022-08-17T05:21:16.184Z,15.00
2022-08-17T05:23:45.013Z,15.10
2022-08-17T05:26:26.153Z,15.20
2022-08-17T05:28:59.648Z,15.30
2022-08-17T05:31:29.548Z,15.40
2022-08-17T05:33:57.459Z,15.80
2022-08-17T05:36:41.547Z,16.10
2022-08-17T05:39:16.564Z,16.40
2022-08-17T05:41:47.482Z,16.60
2022-08-17T05:44:15.732Z,16.70
2022-08-17T05:46:48.835Z,16.90
2022-08-17T05:49:21.665Z,17.10
2022-08-17T05:52:11.322Z,17.30
2022-08-17T05:55:13.148Z,17.50
2022-08-17T05:58:02.448Z,17.70
2022-08-17T06:00:42.379Z,17.80
2022-08-17T06:03:17.088Z,17.90
2022-08-17T06:06:06.113Z,17.90
2022-08-17T06:08:51.515Z,18.00
2022-08-17T06:11:46.943Z,18.20
2022-08-17T06:15:02.660Z,18.40
2022-08-17T06:17:31.241Z,18.60
2022-08-17T06:20:11.693Z,18.90
2022-08-17T06:22:55.970Z,19.10
2022-08-17T06:25:44.113Z,19.30
2022-08-17T06:28:16.292Z,19.40
2022-08-17T06:30:59.476Z,19.50
2022-08-17T06:33:38.226Z,19.60
2022-08-17T06:36:29.439Z,19.90
2022-08-17T06:39:20.967Z,20.00
2022-08-17T06:41:57.238Z,20.10
2022-08-17T06:44:49.675Z,20.10
2022-08-17T06:47:35.077Z,20.10
2022-08-17T06:50:18.131Z,20.30
2022-08-17T06:53:00.095Z,20.40
2022-08-17T06:55:38.235Z,20.30
2022-08-17T06:58:16.355Z,20.20
2022-08-17T07:00:47.353Z,20.10
2022-08-17T07:03:49.868Z,20.10
2022-08-17T07:06:20.843Z,20.20
2022-08-17T07:09:00.081Z,20.40
2022-08-17T07:11:51.561Z,20.50
2022-08-17T07:14:31.797Z,20.60
2022-08-17T07:17:02.899Z,20.70
2022-08-17T07:19:33.096Z,20.80
2022-08-17T07:22:25.049Z,20.80
2022-08-17T07:24:58.576Z,20.90
2022-08-17T07:27:45.883Z,21.30
2022-08-17T07:30:19.367Z,21.70
2022-08-17T07:33:08.370Z,21.70
2022-08-17T07:35:44.034Z,21.80
2022-08-17T07:38:29.732Z,21.90
2022-08-17T07:41:04.928Z,22.20
2022-08-17T07:43:40.909Z,22.40
2022-08-17T07:46:34.014Z,22.70
2022-08-17T07:49:03.471Z,22.80
2022-08-17T07:51:53.335Z,23.10
2022-08-17T07:54:24.301Z,23.40
2022-08-17T07:56:57.808Z,24.10
2022-08-17T07:59:33.519Z,24.30
2022-08-17T08:02:06.161Z,24.30
2022-08-17T08:04:59.649Z,24.00
2022-08-17T08:07:50.495Z,24.00
2022-08-17T08:10:45.027Z,24.00
2022-08-17T08:13:42.359Z,23.90
2022-08-17T08:16:20.024Z,23.70
2022-08-17T08:18:55.542Z,23.60
2022-08-17T08:21:57.130Z,23.80
2022-08-17T08:25:19.952Z,23.90
2022-08-17T08:28:01.650Z,24.10
2022-08-17T08:30:34.720Z,24.30
2022-08-17T08:33:05.678Z,24.50
2022-08-17T08:35:55.076Z,24.70
2022-08-17T08:38:34.514Z,24.60
2022-08-17T08:41:08.402Z,24.80
2022-08-17T08:44:04.219Z,25.00
2022-08-17T08:47:02.850Z,25.20
2022-08-17T08:52:51.833Z,25.30
2022-08-17T08:55:34.513Z,25.00
2022-08-17T08:58:31.816Z,24.90
2022-08-17T09:01:02.702Z,25.30
2022-08-17T09:04:21.408Z,25.60
2022-08-17T09:07:13.690Z,25.70
2022-08-17T09:10:03.552Z,25.80
2022-08-17T09:12:43.836Z,25.90
2022-08-17T09:15:27.581Z,26.00
2022-08-17T09:21:33.708Z,26.10
2022-08-17T09:24:20.770Z,26.20
2022-08-17T09:27:00.360Z,26.20
2022-08-17T09:29:35.277Z,26.30
2022-08-17T09:32:17.514Z,26.30
2022-08-17T09:34:55.042Z,26.40
2022-08-17T09:37:32.794Z,26.50
2022-08-17T09:40:13.868Z,26.50
2022-08-17T09:42:49.950Z,26.40
2022-08-17T09:45:24.206Z,26.40
2022-08-17T09:48:02.138Z,26.50
2022-08-17T09:51:06.938Z,26.50
2022-08-17T09:53:39.539Z,26.40
2022-08-17T09:56:07.282Z,26.40
2022-08-17T09:58:40.774Z,26.60
2022-08-17T10:01:31.371Z,26.60
2022-08-17T10:04:04.981Z,26.80
2022-08-17T10:06:41.102Z,27.10
2022-08-17T10:09:22.015Z,27.30
2022-08-17T10:12:17.158Z,27.40
2022-08-17T10:14:59.702Z,27.40
2022-08-17T10:17:53.460Z,27.40
2022-08-17T10:20:46.389Z,27.20
2022-08-17T10:23:43.733Z,27.20
2022-08-17T10:26:20.621Z,27.40
2022-08-17T10:29:24.638Z,27.40
2022-08-17T10:32:01.673Z,27.50
2022-08-17T10:34:46.652Z,27.40
2022-08-17T10:37:43.479Z,27.30
2022-08-17T10:40:17.778Z,27.20
2022-08-17T10:42:56.905Z,27.40
2022-08-17T10:45:46.966Z,27.50
2022-08-17T10:48:17.567Z,27.50
2022-08-17T10:50:46.149Z,27.60
2022-08-17T10:53:36.877Z,27.80
2022-08-17T10:56:14.146Z,27.90
2022-08-17T10:58:56.238Z,27.90
2022-08-17T11:01:33.118Z,27.90
2022-08-17T11:04:25.094Z,28.10
2022-08-17T11:07:25.816Z,28.30
2022-08-17T11:09:53.333Z,28.40
2022-08-17T11:12:37.661Z,28.30
2022-08-17T11:15:45.166Z,28.30
2022-08-17T11:18:40.718Z,28.10
2022-08-17T11:21:21.332Z,27.90
2022-08-17T11:24:11.438Z,27.90
2022-08-17T11:26:47.642Z,28.00
2022-08-17T11:29:24.823Z,28.30
2022-08-17T11:32:13.501Z,28.60
2022-08-17T11:34:44.613Z,28.90
2022-08-17T11:37:23.687Z,28.90
2022-08-17T11:40:12.996Z,28.70
2022-08-17T11:42:52.626Z,28.70
2022-08-17T11:45:41.790Z,28.40
2022-08-17T11:49:00.955Z,28.30
2022-08-17T11:51:56.044Z,28.50
2022-08-17T11:54:46.317Z,28.60
2022-08-17T11:57:25.881Z,28.70
2022-08-17T11:59:55.309Z,28.60
2022-08-17T12:02:31.728Z,28.60
2022-08-17T12:05:15.058Z,28.70
2022-08-17T12:08:10.795Z,28.80
2022-08-17T12:10:54.295Z,29.10
2022-08-17T12:13:35.184Z,29.20
2022-08-17T12:16:10.053Z,29.30
2022-08-17T12:18:42.231Z,29.30
2022-08-17T12:21:24.269Z,29.30
2022-08-17T12:24:13.525Z,29.10
2022-08-17T12:26:48.962Z,28.90
2022-08-17T12:29:35.418Z,28.90
2022-08-17T12:32:17.826Z,29.00
2022-08-17T12:34:47.976Z,29.00
2022-08-17T12:37:25.561Z,29.10
2022-08-17T12:40:16.726Z,29.20
2022-08-17T12:43:05.829Z,29.30
2022-08-17T12:45:41.907Z,29.20
2022-08-17T12:48:22.118Z,29.30
2022-08-17T12:50:50.906Z,29.10
2022-08-17T12:53:24.818Z,29.00
2022-08-17T12:55:53.905Z,29.20
2022-08-17T12:58:25.917Z,29.30
2022-08-17T13:01:08.788Z,29.50
2022-08-17T13:03:41.117Z,29.60
2022-08-17T13:06:12.237Z,29.70
2022-08-17T13:08:42.881Z,29.80
2022-08-17T13:11:20.174Z,29.80
2022-08-17T13:13:51.305Z,29.60
2022-08-17T13:16:23.595Z,29.60
2022-08-17T13:18:53.810Z,29.70
2022-08-17T13:21:26.726Z,29.70
2022-08-17T13:24:02.243Z,29.70
2022-08-17T13:26:38.047Z,29.90
2022-08-17T13:29:14.625Z,30.00
2022-08-17T13:31:52.832Z,30.10
2022-08-17T13:34:27.288Z,30.00
2022-08-17T13:37:30.276Z,30.00
2022-08-17T13:40:21.520Z,29.90
2022-08-17T13:42:53.978Z,30.00
2022-08-17T13:45:36.470Z,30.00
2022-08-17T13:48:17.327Z,30.00
2022-08-17T13:50:54.685Z,30.00
2022-08-17T13:53:28.297Z,29.80
2022-08-17T13:56:33.431Z,29.80
2022-08-17T13:59:05.096Z,29.90
2022-08-17T14:01:32.845Z,29.90
2022-08-17T14:04:03.510Z,29.90
2022-08-17T14:06:54.135Z,30.00
2022-08-17T14:09:26.026Z,29.90
2022-08-17T14:11:55.023Z,29.90
2022-08-17T14:15:54.830Z,29.80
2022-08-17T14:18:56.166Z,29.80
2022-08-17T14:22:08.288Z,29.90
2022-08-17T14:28:18.632Z,29.90
2022-08-17T14:30:52.329Z,29.80
2022-08-17T14:33:22.553Z,29.60
2022-08-17T14:35:52.091Z,29.40
2022-08-17T14:38:20.367Z,29.20
2022-08-17T14:40:49.041Z,29.00
2022-08-17T14:43:19.629Z,28.90
2022-08-17T14:45:47.880Z,29.10
2022-08-17T14:48:15.986Z,29.30
2022-08-17T14:50:44.397Z,29.70
2022-08-17T14:53:15.545Z,30.20
2022-08-17T14:55:47.229Z,30.30
2022-08-17T14:58:16.442Z,30.40
2022-08-17T15:01:00.827Z,30.60
2022-08-17T15:03:31.218Z,30.60
2022-08-17T15:05:59.722Z,30.50
2022-08-17T15:08:28.369Z,30.50
2022-08-17T15:10:58.875Z,30.50
2022-08-17T15:13:36.835Z,30.50
2022-08-17T15:16:29.238Z,30.60
2022-08-17T15:19:00.039Z,30.50
2022-08-17T15:21:31.079Z,30.50
2022-08-17T15:23:59.044Z,30.60
2022-08-17T15:26:26.754Z,30.60
2022-08-17T15:28:56.166Z,30.80
2022-08-17T15:31:31.883Z,30.90
2022-08-17T15:34:00.221Z,30.90
2022-08-17T15:36:28.175Z,30.90
2022-08-17T15:38:55.896Z,30.80
2022-08-17T15:41:23.608Z,30.80
2022-08-17T15:43:51.746Z,30.80
2022-08-17T15:46:24.566Z,30.70
2022-08-17T15:48:55.658Z,30.60
2022-08-17T15:51:25.688Z,30.50
2022-08-17T15:54:04.421Z,30.20
2022-08-17T15:56:47.123Z,29.90
2022-08-17T15:59:14.858Z,29.80
2022-08-17T16:03:14.277Z,29.70
2022-08-17T16:04:31.669Z,29.70
2022-08-17T16:07:00.490Z,29.60
2022-08-17T16:09:28.701Z,29.60
2022-08-17T16:11:56.702Z,29.40
2022-08-17T16:14:33.553Z,29.30
2022-08-17T16:17:04.926Z,29.20
2022-08-17T16:19:53.022Z,29.00
2022-08-17T16:22:33.628Z,28.90
2022-08-17T16:25:06.703Z,28.80
2022-08-17T16:27:34.740Z,28.70
2022-08-17T16:30:04.566Z,28.60
2022-08-17T16:32:32.963Z,28.60
2022-08-17T16:35:06.372Z,28.60
2022-08-17T16:37:35.042Z,28.50
2022-08-17T16:40:06.926Z,28.50
2022-08-17T16:42:37.076Z,28.40
2022-08-17T16:45:24.020Z,28.40
2022-08-17T16:47:51.902Z,28.40
2022-08-17T16:50:23.276Z,28.60
2022-08-17T16:52:51.405Z,28.70
2022-08-17T16:55:22.079Z,28.70
2022-08-17T16:57:50.814Z,28.60
2022-08-17T17:00:20.871Z,28.50
2022-08-17T17:02:49.610Z,28.40
2022-08-17T17:05:48.583Z,28.20
2022-08-17T17:08:30.444Z,28.20
2022-08-17T17:11:03.916Z,28.10
2022-08-17T17:13:48.563Z,28.10
2022-08-17T17:16:41.374Z,28.00
2022-08-17T17:19:17.951Z,28.00
2022-08-17T17:22:29.532Z,28.00
2022-08-17T17:25:27.997Z,27.90
2022-08-17T17:28:17.953Z,27.90
2022-08-17T17:31:02.092Z,27.80
2022-08-17T17:33:49.317Z,27.70
2022-08-17T17:36:25.819Z,27.70
2022-08-17T17:39:00.344Z,27.70
2022-08-17T17:41:53.635Z,27.70
2022-08-17T17:44:43.713Z,27.60
2022-08-17T17:47:13.060Z,27.30
2022-08-17T17:49:46.662Z,27.10
2022-08-17T17:52:26.487Z,26.90
2022-08-17T17:54:57.101Z,26.80
2022-08-17T17:57:48.999Z,26.70
2022-08-17T18:00:37.118Z,26.80
2022-08-17T18:03:26.034Z,26.70
2022-08-17T18:06:18.751Z,26.70
2022-08-17T18:09:23.100Z,26.60
2022-08-17T18:12:01.383Z,26.50
2022-08-17T18:14:55.325Z,26.40
2022-08-17T18:17:23.708Z,26.30
2022-08-17T18:19:54.337Z,26.30
2022-08-17T18:22:23.666Z,26.20
2022-08-17T18:24:56.215Z,26.10
2022-08-17T18:27:36.772Z,26.10
2022-08-17T18:30:23.152Z,26.00
2022-08-17T18:32:50.702Z,25.90
2022-08-17T18:35:18.326Z,25.70
2022-08-17T18:37:48.464Z,25.60
2022-08-17T18:40:19.945Z,25.60
2022-08-17T18:43:03.116Z,25.60
2022-08-17T18:45:38.321Z,25.60
2022-08-17T18:48:17.986Z,25.60
2022-08-17T18:50:46.052Z,25.60
2022-08-17T18:53:34.377Z,25.40
2022-08-17T18:56:26.456Z,25.30
2022-08-17T18:59:05.266Z,25.20
2022-08-17T19:02:22.121Z,25.00
2022-08-17T19:05:09.572Z,24.90
2022-08-17T19:07:44.260Z,24.80
2022-08-17T19:10:18.893Z,24.80
2022-08-17T19:13:00.122Z,24.60
2022-08-17T19:15:35.538Z,24.50
2022-08-17T19:18:21.298Z,24.40
2022-08-17T19:21:03.899Z,24.30
2022-08-17T19:23:53.535Z,24.30
2022-08-17T19:26:51.406Z,24.30
2022-08-17T19:29:22.336Z,24.20
2022-08-17T19:31:50.654Z,24.10
2022-08-17T19:34:33.654Z,24.00
2022-08-17T19:37:22.077Z,24.00
2022-08-17T19:40:06.849Z,23.90
2022-08-17T19:42:55.840Z,23.90
2022-08-17T19:45:29.777Z,23.80
2022-08-17T19:48:14.968Z,23.80
2022-08-17T19:51:04.589Z,23.70
2022-08-17T19:54:05.004Z,23.70
2022-08-17T19:56:47.972Z,23.60
2022-08-17T19:59:46.466Z,23.50
2022-08-17T20:02:25.840Z,23.40
2022-08-17T20:05:02.370Z,23.20
2022-08-17T20:07:51.253Z,23.00
2022-08-17T20:10:37.357Z,22.80
2022-08-17T20:13:42.081Z,22.70
2022-08-17T20:16:21.096Z,22.70
2022-08-17T20:19:00.929Z,22.70
2022-08-17T20:21:39.352Z,22.70
2022-08-17T20:24:25.483Z,22.60
2022-08-17T20:27:08.112Z,22.60
2022-08-17T20:30:33.491Z,22.60
2022-08-17T20:33:02.777Z,22.60
2022-08-17T20:35:38.753Z,22.50
2022-08-17T20:38:13.076Z,22.40
2022-08-17T20:40:57.466Z,22.10
2022-08-17T20:43:35.747Z,22.00
2022-08-17T20:46:42.430Z,22.00
2022-08-17T20:49:41.405Z,21.90
2022-08-17T20:52:13.467Z,21.80
2022-08-17T20:54:45.480Z,21.90
2022-08-17T20:57:34.238Z,21.90
2022-08-17T21:00:18.305Z,21.90
2022-08-17T21:02:49.808Z,22.00
2022-08-17T21:05:57.356Z,22.20
2022-08-17T21:08:57.734Z,22.40
2022-08-17T21:11:57.032Z,22.60
2022-08-17T21:14:36.715Z,22.70
2022-08-17T21:17:33.628Z,22.80
2022-08-17T21:20:11.854Z,22.90
2022-08-17T21:22:59.126Z,23.00
2022-08-17T21:25:48.966Z,23.10
2022-08-17T21:28:37.449Z,23.20
2022-08-17T21:32:09.112Z,23.20
2022-08-17T21:34:43.211Z,23.20
2022-08-17T21:37:23.412Z,23.20
2022-08-17T21:40:18.472Z,23.20
2022-08-17T21:42:50.854Z,23.10
2022-08-17T21:45:25.559Z,23.20
2022-08-17T21:48:14.803Z,23.10
2022-08-17T21:50:57.860Z,23.00
2022-08-17T21:53:33.590Z,23.00
2022-08-17T21:56:01.408Z,23.00
2022-08-17T21:58:33.400Z,23.00
2022-08-17T22:01:22.676Z,22.90
2022-08-17T22:04:00.543Z,22.90
2022-08-17T22:06:34.335Z,22.80
2022-08-17T22:09:28.114Z,22.80
2022-08-17T22:12:17.775Z,22.70
2022-08-17T22:15:06.085Z,22.70
2022-08-17T22:17:37.082Z,22.70
2022-08-17T22:20:15.049Z,22.60
2022-08-17T22:23:04.253Z,22.60
2022-08-17T22:25:36.125Z,22.60
2022-08-17T22:28:07.613Z,22.70
2022-08-17T22:30:41.716Z,22.70
2022-08-17T22:33:37.028Z,22.70
2022-08-17T22:36:23.597Z,22.60
2022-08-17T22:38:56.206Z,22.40
2022-08-17T22:41:37.910Z,22.30
2022-08-17T22:44:20.693Z,22.30
2022-08-17T22:47:18.866Z,22.20
2022-08-17T22:49:53.285Z,22.10
2022-08-17T22:52:32.602Z,22.20
2022-08-17T22:55:30.561Z,22.30
2022-08-17T22:58:17.909Z,22.40
2022-08-17T23:00:48.612Z,22.30
2022-08-17T23:03:18.291Z,22.30
2022-08-17T23:05:49.487Z,22.20
2022-08-17T23:08:21.273Z,21.80
2022-08-17T23:10:49.397Z,21.00
2022-08-17T23:13:17.186Z,20.40
2022-08-17T23:15:45.914Z,20.10
2022-08-17T23:18:13.712Z,19.90
2022-08-17T23:20:46.076Z,19.80
2022-08-17T23:23:16.138Z,19.80
2022-08-17T23:25:46.223Z,20.00
2022-08-17T23:28:14.459Z,19.90
2022-08-17T23:30:48.597Z,19.60
2022-08-17T23:33:30.101Z,19.40
2022-08-17T23:35:58.907Z,19.20
2022-08-17T23:38:27.473Z,18.90
2022-08-17T23:41:00.059Z,18.70
2022-08-17T23:43:29.781Z,18.50
2022-08-17T23:45:59.974Z,18.30
2022-08-17T23:48:35.801Z,18.30
2022-08-17T23:51:20.300Z,18.30
2022-08-17T23:53:55.272Z,18.30
2022-08-17T23:56:25.794Z,18.20
2022-08-17T23:58:55.423Z,18.20
